Station: Cerberus  

  Atmospheric Gas Attenuation - ITU Rec 676-11   ----------------- dB/100km -----------------
Date Time Temp RH % AH g/m3 Dew Point Wind Direction Speed kph Gust kph Barometer mB Rainfall Since 9am 24GHz 47GHz 76GHz 122GHz 134GHz 241GHz
08/05 12:30 14.4 83 10.26 11.6 19 30 1022.4 0.2 23.1 28.8 46.8 122.9 120.9 417.3
08/05 12:20 13.9 84 10.07 11.2 13 17 1022.5 0.2 22.7 28.7 46.3 121.5 119.1 410.7
08/05 12:10 13.8 81 9.65 10.6 22 28 1022.7 0.2 21.8 28.0 44.5 117.0 113.4 390.9
08/05 12:00 15.4 78 10.25 11.6 19 30 1022.7 0.2 23.0 28.5 46.1 121.3 119.3 411.6
08/05 11:50 14.5 76 9.45 10.3 17 22 1022.9 0.2 21.4 27.4 43.3 113.8 109.7 377.9
08/05 11:40 14.8 76 9.63 10.6 26 33 1022.9 0.2 21.7 27.7 43.9 115.3 111.7 385.0
08/05 11:30 14.4 76 9.39 10.2 24 41 1022.7 0.2 21.2 27.4 43.1 113.2 109.0 375.5
08/05 11:20 14.9 74 9.43 10.3 17 22 1022.7 0.2 21.3 27.3 43.0 112.9 108.8 375.0
08/05 11:10 14 78 9.41 10.2 20 24 1022.7 0.2 21.3 27.5 43.4 114.0 109.8 378.4
08/05 11:00 15.4 70 9.2 10 22 43 1022.4 0 20.8 26.7 41.8 109.7 105.0 361.8
08/05 10:50 15.9 76 10.29 11.8 17 20 1022.2 0 23.1 28.4 46.0 120.9 119.0 410.7
08/05 10:40 14.3 77 9.46 10.3 15 20 1022.3 0 21.4 27.5 43.5 114.1 110.0 379.2
08/05 10:30 14.5 75 9.33 10.1 20 33 1022.1 0 21.1 27.2 42.8 112.3 108.0 372.0
08/05 10:20 13.8 78 9.29 10 22 30 1022.1 0 21.1 27.4 43.0 112.9 108.4 373.4
08/05 10:10 15.1 73 9.42 10.3 32 39 1021.9 0 21.3 27.2 42.8 112.4 108.3 373.3
08/05 10:00 15.1 72 9.29 10.1 20 37 1021.9 0 21.0 27.0 42.3 111.0 106.6 367.2
08/05 09:50 14.8 73 9.25 10 22 28 1022 0 20.9 27.0 42.3 111.0 106.5 366.8
08/05 09:40 14.5 74 9.2 9.9 15 17 1022 0 20.8 27.0 42.3 110.9 106.2 365.8
08/05 09:30 14.4 76 9.39 10.2 19 33 1021.8 0 21.2 27.3 43.1 113.1 108.9 375.2
08/05 09:20 13.9 79 9.47 10.3 20 26 1021.8 0 21.4 27.6 43.7 114.7 110.7 381.4
08/05 09:10 14.3 75 9.21 9.9 22 28 1021.9 0 20.9 27.1 42.4 111.3 106.6 367.2
08/05 09:00 14.3 76 9.34 10.1 17 28 1021.6 0 21.1 27.3 42.9 112.7 108.3 373.3
08/05 08:50 14.2 76 9.28 10 17 20 1021.2 8.6 21.0 27.2 42.7 112.1 107.6 370.8
08/05 08:40 14.2 76 9.28 10 20 22 1021.1 8.6 21.0 27.2 42.7 112.1 107.6 370.7
08/05 08:30 14 77 9.29 10 22 39 1021 8.6 21.0 27.3 42.9 112.5 108.0 372.1
08/05 08:20 13.8 78 9.29 10 20 26 1020.8 8.6 21.1 27.3 43.0 112.8 108.3 373.0
08/05 08:10 13.7 79 9.36 10.1 19 20 1020.8 8.6 21.2 27.5 43.3 113.7 109.4 376.9
08/05 08:00 13.5 79 9.24 9.9 17 24 1020.6 8.6 21.0 27.3 42.9 112.6 108.0 372.0
08/05 07:50 13.4 80 9.3 10 20 24 1020.6 8.6 21.1 27.4 43.2 113.4 109.0 375.4
08/05 07:40 13.2 82 9.42 10.2 19 20 1020.4 8.6 21.4 27.7 43.8 115.0 110.9 382.0
08/05 07:30 12.8 83 9.3 10 20 37 1020.4 8.6 21.1 27.6 43.5 114.3 109.8 378.2
08/05 07:20 12.9 85 9.58 10.4 19 24 1020.2 8.6 21.7 28.1 44.6 117.3 113.5 391.2
08/05 07:10 12.7 85 9.46 10.2 15 20 1020.1 8.6 21.5 27.9 44.2 116.2 112.1 386.4
08/05 07:00 12.6 85 9.4 10.1 20 30 1020 8.6 21.4 27.8 44.0 115.7 111.5 383.9
08/05 06:50 12.5 86 9.46 10.2 22 30 1019.9 8.6 21.5 28.0 44.3 116.5 112.4 387.3
08/05 06:40 12.7 86 9.57 10.4 22 30 1020 8.6 21.7 28.1 44.7 117.4 113.7 391.7
08/05 06:30 12.7 86 9.57 10.4 15 35 1020 8.6 21.7 28.1 44.7 117.4 113.7 391.7
08/05 06:20 12.9 85 9.58 10.4 19 22 1019.8 8.4 21.7 28.0 44.6 117.2 113.5 391.1
08/05 06:10 12.9 84 9.47 10.2 22 30 1019.8 8.4 21.5 27.9 44.2 116.0 112.0 385.8
08/05 06:00 13 82 9.3 10 28 46 1019.7 8.4 21.1 27.5 43.4 113.9 109.5 377.0
08/05 05:50 12.9 84 9.47 10.2 33 43 1019.5 8.4 21.5 27.8 44.1 115.9 111.9 385.7
08/05 05:40 13 86 9.75 10.7 22 28 1019.3 8.4 22.1 28.3 45.3 118.9 115.7 398.7
08/05 05:30 12.8 87 9.75 10.7 22 37 1019.3 8.4 22.1 28.4 45.4 119.2 116.0 399.8
08/05 05:20 12.7 87 9.69 10.6 20 30 1019.2 8.4 22.0 28.3 45.2 118.7 115.3 397.3
08/05 05:10 12.9 88 9.92 10.9 24 35 1019.1 8.4 22.5 28.6 46.0 121.0 118.2 407.5
08/05 05:00 12.7 88 9.8 10.8 26 39 1019 8.4 22.2 28.5 45.6 119.9 116.8 402.6
08/05 04:50 13.1 88 10.04 11.1 24 32 1019.1 8.4 22.7 28.7 46.4 122.1 119.6 412.4
08/05 04:40 13.1 88 10.04 11.1 19 22 1018.8 8 22.7 28.7 46.4 122.0 119.5 412.3
08/05 04:30 13 88 9.98 11.1 22 43 1018.7 7.8 22.6 28.7 46.2 121.5 118.8 409.8
08/05 04:20 12.9 88 9.92 10.9 22 30 1018.7 7.8 22.5 28.6 46.0 121.0 118.2 407.4
08/05 04:10 12.8 88 9.86 10.8 26 35 1018.5 7.6 22.3 28.5 45.8 120.4 117.4 404.9
08/05 04:00 12.9 88 9.92 11 20 35 1018.6 7.4 22.5 28.6 46.0 120.9 118.1 407.4
08/05 03:50 12.9 88 9.92 10.9 20 28 1018.5 7.4 22.5 28.6 46.0 120.9 118.1 407.3
08/05 03:40 12.9 87 9.81 10.8 22 28 1018.4 7.4 22.2 28.4 45.5 119.7 116.6 401.9
08/05 03:30 12.9 86 9.69 10.6 15 24 1018.3 7.2 22.0 28.2 45.0 118.3 114.9 396.0
08/05 03:20 13 86 9.75 10.7 24 28 1018.4 7 22.1 28.3 45.2 118.8 115.6 398.4
08/05 03:10 12.8 86 9.63 10.5 20 26 1018.1 6.8 21.8 28.1 44.8 117.7 114.2 393.5
08/05 03:00 12.7 87 9.69 10.6 20 41 1018.2 6.8 22.0 28.2 45.1 118.6 115.2 397.0
08/05 02:50 13 88 9.98 11 22 30 1018.2 6.8 22.6 28.6 46.2 121.4 118.8 409.7
08/05 02:40 12.9 87 9.81 10.8 19 26 1018.2 6.6 22.2 28.4 45.5 119.6 116.6 401.8
08/05 02:30 12.9 87 9.81 10.8 19 28 1018.1 6.6 22.2 28.4 45.5 119.6 116.5 401.8
08/05 02:20 12.9 86 9.69 10.6 15 20 1018.1 6.2 22.0 28.2 45.0 118.3 114.9 395.9
08/05 02:10 12.8 87 9.75 10.7 20 32 1018.2 6.2 22.1 28.3 45.3 119.1 115.9 399.4
08/05 02:00 12.9 88 9.92 11 22 39 1018.3 6.2 22.5 28.6 46.0 120.9 118.1 407.3
08/05 01:50 12.8 89 9.97 11 20 28 1018.4 6.2 22.6 28.7 46.3 121.7 119.0 410.3
08/05 01:40 12.6 89 9.85 10.8 19 24 1018.3 6 22.3 28.5 45.9 120.6 117.6 405.4
08/05 01:30 12.4 90 9.83 10.8 19 30 1018.5 6 22.3 28.6 45.9 120.7 117.6 405.5
08/05 01:20 12.2 90 9.71 10.6 17 19 1018.7 6 22.0 28.5 45.5 119.6 116.3 400.7
08/05 01:10 11.9 90 9.53 10.3 15 19 1018.6 5.8 21.7 28.2 44.9 118.0 114.2 393.3
08/05 01:00 11.9 90 9.53 10.3 17 32 1018.7 5.6 21.7 28.2 44.9 118.0 114.2 393.4
08/05 00:50 11.8 90 9.47 10.2 19 24 1018.7 5.2 21.6 28.2 44.7 117.5 113.5 390.9
08/05 00:40 11.8 90 9.47 10.2 22 30 1018.8 5.2 21.6 28.2 44.7 117.5 113.5 391.0
08/05 00:30 11.7 90 9.41 10.1 22 33 1018.7 5.2 21.4 28.1 44.5 117.0 112.8 388.5
08/05 00:20 11.7 89 9.31 9.9 20 24 1018.8 5.2 21.2 27.9 44.1 115.8 111.4 383.6
08/05 00:10 11.6 89 9.25 9.8 22 26 1018.8 5 21.1 27.9 43.9 115.3 110.7 381.2
08/05 00:00 11.5 89 9.19 9.8 20 35 1018.9 4.8 21.0 27.8 43.7 114.8 110.0 378.7
07/05 23:50 11.4 89 9.14 9.6 20 28 1019 4.8 20.9 27.7 43.6 114.4 109.5 376.8
07/05 23:40 11.3 89 9.08 9.5 20 26 1019.1 4.6 20.7 27.7 43.4 113.9 108.8 374.4
07/05 23:30 11.3 89 9.08 9.6 20 35 1019.1 4.6 20.7 27.7 43.4 113.9 108.8 374.4
07/05 23:20 11.2 89 9.02 9.4 26 32 1019.3 4.6 20.6 27.6 43.2 113.3 108.1 372.0
07/05 23:10 11.2 89 9.02 9.4 24 37 1019.3 4.6 20.6 27.6 43.2 113.3 108.1 372.0
07/05 23:00 11.1 89 8.97 9.4 20 33 1019.3 4.6 20.5 27.6 43.0 112.9 107.5 370.0
07/05 22:50 11 89 8.91 9.2 22 32 1019.6 4.4 20.4 27.5 42.8 112.4 106.9 367.7
07/05 22:40 11 88 8.81 9.1 20 30 1019.9 4.4 20.2 27.3 42.4 111.3 105.5 362.9
07/05 22:30 11 88 8.81 9.1 19 32 1019.9 4.4 20.2 27.3 42.4 111.3 105.5 362.9
07/05 22:20 11 88 8.81 9.1 20 26 1020 4.4 20.2 27.3 42.4 111.3 105.5 362.9
07/05 22:10 11 88 8.81 9.1 20 24 1020.2 4.4 20.2 27.4 42.4 111.4 105.5 363.0
07/05 22:00 11 87 8.71 8.9 20 33 1020.3 4.4 20.0 27.2 42.0 110.2 104.2 358.2
07/05 21:50 11 87 8.71 8.9 22 26 1020.3 4.2 20.0 27.2 42.0 110.2 104.2 358.2
07/05 21:40 10.9 87 8.66 8.8 19 24 1020.3 4.2 19.9 27.1 41.9 109.8 103.6 356.2
07/05 21:30 10.9 87 8.66 8.8 19 28 1020.3 4.2 19.9 27.1 41.9 109.8 103.6 356.2
07/05 21:20 10.9 87 8.66 8.8 20 26 1020.2 4.2 19.9 27.1 41.9 109.8 103.6 356.2
07/05 21:10 10.8 87 8.6 8.7 24 30 1020.3 4.2 19.7 27.1 41.7 109.3 102.9 353.7
07/05 21:00 10.8 87 8.6 8.7 19 32 1020.3 4.2 19.7 27.1 41.7 109.3 102.9 353.7
07/05 20:50 10.7 87 8.55 8.6 19 26 1020.3 4.2 19.6 27.0 41.5 108.9 102.3 351.8
07/05 20:40 10.6 87 8.49 8.5 19 22 1020.1 4.2 19.5 26.9 41.3 108.3 101.6 349.3
07/05 20:30 10.5 87 8.44 8.4 19 30 1020.4 4 19.4 26.9 41.2 107.9 101.1 347.4
07/05 20:20 10.4 87 8.39 8.3 15 22 1020.6 4 19.3 26.8 41.0 107.5 100.5 345.5
07/05 20:10 10.3 86 8.24 8 13 17 1020.8 4 19.0 26.6 40.4 106.0 98.6 338.7
07/05 20:00 10.2 86 8.19 8 17 24 1021 4 18.9 26.6 40.3 105.6 98.1 336.8

Last Refresh: 08-May-2026 12:07:14

Bureau of Meteorology